Time;durP1;ratioP1;P1;durP2;ratioP2;P2;SDS_P1;SDS_P2;PMS_P1;PMS_P2;Temp;Humidity;BMP_temperature;BMP_pressure;BME280_temperature;BME280_humidity;BME280_pressure;Samples;Min_cycle;Max_cycle;Signal;HPM_P1;HPM_P2
2023/01/06 00:01:12;;;;;;;12.25;6.07;;;12.90;95.00;;;11.73;80.60;100850.53;6151606;23;20022;-84
2023/01/06 00:03:40;;;;;;;13.23;5.43;;;12.90;94.60;;;11.71;80.81;100854.41;6152341;23;20032;-84
2023/01/06 00:06:10;;;;;;;11.98;5.28;;;12.90;94.70;;;11.72;80.73;100848.88;6150275;23;20032;-85
2023/01/06 00:08:39;;;;;;;10.33;5.73;;;12.90;94.70;;;11.72;80.41;100850.75;6150950;23;20109;-85
2023/01/06 00:11:07;;;;;;;10.80;5.18;;;12.90;94.40;;;11.70;80.40;100850.94;6150502;23;20730;-84
2023/01/06 00:13:35;;;;;;;8.27;4.72;;;12.90;94.40;;;11.71;80.18;100847.25;6151402;23;20025;-84
2023/01/06 00:16:07;;;;;;;10.32;4.82;;;12.90;94.40;;;11.73;80.03;100837.16;6151996;23;20100;-84
2023/01/06 00:18:34;;;;;;;9.93;4.32;;;12.90;94.30;;;11.66;79.69;100832.84;6151478;23;20047;-84
2023/01/06 00:21:02;;;;;;;8.23;4.25;;;12.90;94.10;;;11.63;80.16;100841.31;6151669;23;20096;-84
2023/01/06 00:23:29;;;;;;;9.50;4.03;;;12.90;94.20;;;11.62;80.13;100837.81;6152044;23;20451;-84
2023/01/06 00:25:57;;;;;;;9.10;3.75;;;12.80;94.10;;;11.63;79.94;100830.63;6151263;23;20035;-84
2023/01/06 00:28:24;;;;;;;12.93;4.30;;;12.80;93.90;;;11.58;79.90;100831.25;6151726;23;20140;-84
2023/01/06 00:30:52;;;;;;;9.82;3.85;;;12.80;93.80;;;11.57;79.80;100825.09;6149711;23;20345;-84
2023/01/06 00:33:22;;;;;;;10.60;3.65;;;12.80;94.00;;;11.62;79.61;100827.13;6152094;23;20096;-84
2023/01/06 00:35:49;;;;;;;8.82;3.30;;;12.80;94.00;;;11.59;79.90;100827.53;6152092;23;20024;-84
2023/01/06 00:38:16;;;;;;;8.38;3.10;;;12.80;94.00;;;11.58;79.77;100825.91;6151430;23;20018;-84
2023/01/06 00:40:43;;;;;;;11.70;3.28;;;12.80;94.00;;;11.58;79.90;100825.91;6152078;23;20447;-84
2023/01/06 00:43:10;;;;;;;12.10;3.70;;;12.70;94.10;;;11.55;80.04;100827.13;6151184;23;20358;-84
2023/01/06 00:45:37;;;;;;;10.48;2.85;;;12.80;94.20;;;11.58;80.10;100809.88;6151394;23;20104;-84
2023/01/06 00:48:05;;;;;;;6.93;2.65;;;12.80;94.10;;;11.59;79.80;100811.50;6150626;23;20028;-84
2023/01/06 00:50:34;;;;;;;10.25;2.83;;;12.80;94.00;;;11.62;79.47;100812.97;6150858;23;20025;-84
2023/01/06 00:53:01;;;;;;;8.38;2.85;;;12.80;93.80;;;11.62;79.42;100813.78;6149428;23;20352;-84
2023/01/06 00:55:29;;;;;;;8.88;2.72;;;12.80;93.80;;;11.61;79.50;100806.75;6149829;23;20124;-83
2023/01/06 00:57:56;;;;;;;8.20;2.60;;;13.00;94.00;;;11.60;79.41;100803.28;6149763;23;20029;-83
2023/01/06 01:00:23;;;;;;;10.60;2.60;;;12.80;93.70;;;11.62;79.17;100808.44;6151025;23;20032;-84
2023/01/06 01:02:50;;;;;;;7.45;2.28;;;12.80;93.70;;;11.63;78.94;100801.22;6148080;23;20569;-84
2023/01/06 01:05:18;;;;;;;11.50;2.60;;;12.80;93.40;;;11.59;78.84;100803.50;6149105;23;20120;-82
2023/01/06 01:07:46;;;;;;;8.88;2.38;;;12.80;93.40;;;11.58;79.03;100797.34;6149482;23;20451;-84
2023/01/06 01:10:14;;;;;;;8.13;2.10;;;12.90;93.40;;;11.62;78.72;100804.94;6150149;23;20057;-84
2023/01/06 01:12:41;;;;;;;8.85;2.40;;;12.80;93.40;;;11.64;78.76;100803.69;6148190;23;20490;-84
2023/01/06 01:15:09;;;;;;;9.65;2.25;;;12.80;93.20;;;11.66;78.63;100804.28;6149648;23;20032;-84
2023/01/06 01:17:37;;;;;;;9.00;2.15;;;12.80;93.10;;;11.64;78.05;100814.38;6149662;23;20027;-84
2023/01/06 01:20:05;;;;;;;10.13;2.40;;;12.80;92.80;;;11.66;78.32;100806.97;6148213;23;20100;-84
2023/01/06 01:22:32;;;;;;;7.00;2.13;;;12.80;93.00;;;11.65;77.75;100810.66;6147298;23;20029;-84
2023/01/06 01:25:02;;;;;;;7.95;2.22;;;12.80;92.60;;;11.66;78.03;100806.97;6148686;23;20076;-84
2023/01/06 01:27:29;;;;;;;6.95;2.10;;;12.80;92.80;;;11.64;77.88;100808.22;6148763;23;20052;-84
2023/01/06 01:29:59;;;;;;;5.43;1.73;;;12.80;92.70;;;11.64;77.65;100816.22;6149692;23;20021;-84
2023/01/06 01:32:27;;;;;;;9.85;2.15;;;12.80;92.40;;;11.63;77.56;100818.06;6151140;23;20040;-84
2023/01/06 01:34:54;;;;;;;7.20;1.88;;;12.80;92.40;;;11.56;77.34;100823.41;6149089;23;20030;-84
2023/01/06 01:37:21;;;;;;;7.40;1.98;;;12.80;92.30;;;11.56;78.09;100818.06;6148912;23;20088;-84
2023/01/06 01:39:48;;;;;;;11.57;1.77;;;12.80;92.50;;;11.61;78.02;100825.47;6150901;23;20109;-84
2023/01/06 01:42:19;;;;;;;10.55;2.25;;;12.80;92.50;;;11.60;77.89;100815.81;6149762;23;20032;-84
2023/01/06 01:45:01;;;;;;;6.10;1.92;;;12.80;92.40;;;11.62;77.00;100811.09;6150613;23;20101;-85
2023/01/06 01:47:42;;;;;;;8.02;1.80;;;12.80;92.00;;;11.63;77.27;100811.91;6150620;23;20052;-85
2023/01/06 01:50:25;;;;;;;;;;;12.80;92.00;;;11.64;76.89;100809.03;6150015;23;20121;-85
2023/01/06 01:53:04;;;;;;;7.35;1.80;;;12.80;91.70;;;11.59;76.73;100814.19;6150586;23;19927;-86
2023/01/06 01:55:32;;;;;;;7.82;2.00;;;12.80;91.70;;;11.62;77.02;100810.28;6150227;23;20024;-85
2023/01/06 01:58:09;;;;;;;7.82;2.30;;;12.80;92.00;;;11.59;76.57;100812.31;6150885;23;20087;-85
2023/01/06 02:00:37;;;;;;;8.18;1.80;;;12.80;91.60;;;11.59;76.92;100801.66;6150268;23;20101;-86
2023/01/06 02:03:05;;;;;;;9.93;2.17;;;12.80;91.80;;;11.60;76.81;100797.13;6148986;23;20030;-85
2023/01/06 02:05:37;;;;;;;6.95;1.90;;;12.80;91.80;;;11.63;76.96;100806.56;6148559;23;20479;-85
2023/01/06 02:08:14;;;;;;;6.18;2.10;;;12.80;91.90;;;11.62;76.52;100800.41;6146672;23;20520;-84
2023/01/06 02:10:42;;;;;;;9.05;2.10;;;12.80;91.40;;;11.61;76.63;100804.09;6147952;23;20539;-85
2023/01/06 02:13:11;;;;;;;6.95;1.95;;;12.80;91.70;;;11.59;75.90;100800.81;6150776;23;20027;-85
2023/01/06 02:15:38;;;;;;;4.93;1.77;;;12.80;91.10;;;11.56;76.31;100796.72;6149224;23;20032;-85
2023/01/06 02:18:29;;;;;;;5.80;1.70;;;12.80;91.40;;;11.58;76.58;100788.50;6149051;23;20100;-85
2023/01/06 02:21:13;;;;;;;5.28;1.80;;;12.80;91.60;;;11.61;76.52;100796.06;6149018;23;20076;-85
2023/01/06 02:24:37;;;;;;;6.25;1.90;;;12.80;91.60;;;11.63;76.82;100796.72;6149124;23;20025;-85
2023/01/06 02:27:51;;;;;;;7.05;2.00;;;12.80;91.80;;;11.68;76.46;100791.56;6148917;23;20108;-84
2023/01/06 02:30:51;;;;;;;12.00;2.25;;;12.80;91.50;;;11.65;75.79;100799.97;6150980;23;20052;-84
2023/01/06 02:33:26;;;;;;;7.57;1.90;;;12.80;91.10;;;11.64;76.34;100792.19;6119040;23;20033;-84
2023/01/06 02:36:29;;;;;;;7.93;2.20;;;12.80;91.40;;;11.68;76.21;100788.06;6149229;23;20036;-84
2023/01/06 02:39:20;;;;;;;7.13;1.90;;;12.80;91.40;;;11.65;75.89;100778.59;6143192;23;20025;-84
2023/01/06 02:41:56;;;;;;;7.05;2.05;;;12.80;91.20;;;11.63;76.26;100770.00;6148395;23;20052;-84
2023/01/06 02:44:32;;;;;;;6.13;2.20;;;12.80;91.40;;;11.63;76.04;100771.84;6148158;23;20534;-84
2023/01/06 02:47:13;;;;;;;9.45;2.13;;;12.80;91.20;;;11.59;76.02;100774.13;6147562;23;20108;-84
2023/01/06 02:49:47;;;;;;;;;;;12.80;91.20;;;11.54;75.46;100766.72;6149342;23;20104;-84
2023/01/06 02:52:24;;;;;;;8.13;2.38;;;12.80;90.90;;;11.55;75.80;100770.22;6148593;23;19951;-84
2023/01/06 02:55:01;;;;;;;7.40;2.17;;;12.80;91.10;;;11.56;76.04;100769.19;6148226;23;20459;-84
2023/01/06 02:57:39;;;;;;;9.13;1.90;;;12.80;91.20;;;11.56;75.77;100772.66;6148570;23;20108;-84
2023/01/06 03:00:14;;;;;;;7.90;2.30;;;12.70;91.20;;;11.60;75.96;100773.06;6148490;23;20107;-84
2023/01/06 03:02:45;;;;;;;5.03;2.20;;;12.80;91.20;;;11.61;75.70;100756.00;6148075;23;20337;-84
2023/01/06 03:05:16;;;;;;;10.10;2.35;;;12.80;91.20;;;11.57;75.14;100760.97;6149780;23;20096;-83
2023/01/06 03:07:45;;;;;;;8.82;2.72;;;12.80;90.80;;;11.62;75.14;100757.69;6147648;23;20374;-84
2023/01/06 03:10:17;;;;;;;6.75;2.00;;;12.80;90.80;;;11.63;75.47;100745.94;6147976;23;20021;-84
2023/01/06 03:12:52;;;;;;;7.40;1.92;;;12.80;90.80;;;11.62;74.64;100736.31;6147783;23;20080;-84
2023/01/06 03:15:20;;;;;;;6.38;2.00;;;13.00;90.30;;;11.59;74.18;100742.88;6147073;23;20033;-84
2023/01/06 03:17:48;;;;;;;6.85;2.22;;;12.80;90.00;;;11.59;74.40;100742.88;6147562;23;20399;-84
2023/01/06 03:20:17;;;;;;;8.02;2.20;;;12.80;90.20;;;11.57;74.79;100734.25;6148247;23;20025;-84
2023/01/06 03:22:45;;;;;;;6.15;2.00;;;12.80;90.40;;;11.61;75.20;100734.63;6148497;23;20021;-84
2023/01/06 03:25:13;;;;;;;6.88;2.65;;;12.80;90.60;;;11.61;75.15;100739.97;6149549;23;20550;-84
2023/01/06 03:27:42;;;;;;;6.28;2.00;;;12.80;90.60;;;11.59;74.75;100728.69;6148826;23;20017;-85
2023/01/06 03:30:12;;;;;;;7.10;2.00;;;12.80;90.30;;;11.61;75.08;100726.63;6148486;23;20025;-84
2023/01/06 03:32:52;;;;;;;8.13;2.00;;;12.80;90.60;;;11.67;75.01;100717.78;6147293;23;20032;-84
2023/01/06 03:35:38;;;;;;;12.70;2.03;;;12.80;90.50;;;11.67;74.89;100712.44;6148250;23;20025;-84
2023/01/06 03:38:21;;;;;;;8.18;2.30;;;12.80;90.40;;;11.65;74.03;100717.16;6149812;23;20672;-84
2023/01/06 03:43:42;;;;;;;6.85;2.30;;;12.80;89.90;;;11.67;73.94;100720.47;6088218;23;20029;-85
2023/01/06 03:46:23;;;;;;;7.50;2.20;;;12.80;90.00;;;11.65;73.63;100714.47;6088839;23;20061;-85
2023/01/06 03:49:01;;;;;;;6.53;1.92;;;12.80;89.50;;;11.64;73.34;100707.50;6090481;23;20274;-85
2023/01/06 03:51:43;;;;;;;8.02;1.92;;;12.80;89.40;;;11.61;72.54;100707.91;6095437;23;20021;-85
2023/01/06 03:54:24;;;;;;;7.25;1.65;;;12.80;88.90;;;11.60;72.76;100711.63;6120864;23;20097;-85
2023/01/06 03:57:04;;;;;;;8.30;1.98;;;12.80;89.10;;;11.51;71.75;100707.56;6142714;23;20104;-85
2023/01/06 03:59:38;;;;;;;8.40;1.58;;;12.80;88.20;;;11.50;71.27;100712.06;6119036;23;20026;-85
2023/01/06 04:02:06;;;;;;;5.22;1.50;;;12.70;88.00;;;11.53;71.34;100705.50;6142361;23;20036;-85
2023/01/06 04:04:33;;;;;;;7.82;2.08;;;12.70;87.90;;;11.56;71.67;100710.41;6118021;23;20026;-85
2023/01/06 04:07:02;;;;;;;5.60;1.30;;;12.70;88.30;;;11.55;70.47;100698.09;6118526;23;20061;-85
2023/01/06 04:09:29;;;;;;;5.95;1.35;;;12.70;87.30;;;11.56;70.58;100705.06;6143318;23;20110;-85
2023/01/06 04:14:41;;;;;;;8.00;1.20;;;12.70;87.70;;;11.52;70.57;100695.88;6118067;23;20052;-85
2023/01/06 04:17:08;;;;;;;7.07;1.70;;;12.70;87.30;;;11.47;70.11;100691.16;6142486;23;20037;-85
2023/01/06 04:19:35;;;;;;;8.98;1.60;;;12.70;87.00;;;11.49;70.52;100693.59;6142805;23;20630;-85
2023/01/06 04:22:04;;;;;;;6.63;1.23;;;12.70;87.50;;;11.48;70.05;100697.31;6141824;23;20037;-85
2023/01/06 04:24:32;;;;;;;7.88;1.30;;;12.70;87.10;;;11.45;69.43;100692.38;6142878;23;20367;-85
2023/01/06 04:26:59;;;;;;;6.28;1.42;;;12.70;86.30;;;11.47;70.21;100695.69;6142206;23;20022;-85
2023/01/06 04:29:26;;;;;;;8.65;1.65;;;12.70;87.20;;;11.46;69.94;100676.13;6118973;23;20108;-85
2023/01/06 04:31:55;;;;;;;8.98;1.67;;;12.70;86.90;;;11.49;70.48;100673.06;6143724;23;20030;-85
2023/01/06 04:34:23;;;;;;;5.47;1.45;;;12.70;87.40;;;11.48;69.56;100670.59;6144171;23;20780;-85
2023/01/06 04:36:50;;;;;;;6.32;1.42;;;12.60;86.60;;;11.47;70.58;100652.94;6143197;23;20034;-85
2023/01/06 04:39:18;;;;;;;4.43;1.65;;;12.70;87.50;;;11.52;70.62;100667.31;6122037;23;20098;-85
2023/01/06 04:41:45;;;;;;;4.22;1.42;;;12.70;87.50;;;11.51;70.34;100672.84;6121970;23;20026;-85
2023/01/06 04:44:13;;;;;;;5.60;1.45;;;12.70;87.10;;;11.49;70.74;100653.53;6120843;23;20022;-85
2023/01/06 04:46:40;;;;;;;4.40;1.40;;;12.70;87.40;;;11.44;70.17;100658.69;6121036;23;20097;-85
2023/01/06 04:49:07;;;;;;;6.03;1.42;;;12.70;86.70;;;11.42;70.52;100647.41;6121638;23;20029;-85
2023/01/06 04:51:35;;;;;;;6.85;1.85;;;12.60;86.90;;;11.43;69.87;100646.38;6121560;23;20352;-85
2023/01/06 04:54:02;;;;;;;7.47;1.63;;;12.60;86.50;;;11.35;69.10;100639.41;6121653;23;20025;-85
2023/01/06 04:56:30;;;;;;;7.72;1.30;;;12.60;85.70;;;11.34;69.14;100637.78;6120680;23;20018;-85
2023/01/06 04:58:58;;;;;;;7.00;1.50;;;12.50;86.20;;;11.39;69.61;100634.50;6121807;23;20028;-85
2023/01/06 05:01:26;;;;;;;7.78;1.42;;;12.60;86.50;;;11.40;69.80;100636.13;6121967;23;20494;-85
2023/01/06 05:03:53;;;;;;;3.88;1.33;;;12.60;86.60;;;11.41;69.59;100640.41;6121921;23;20026;-85
2023/01/06 05:06:22;;;;;;;8.43;1.25;;;12.60;86.50;;;11.40;69.58;100641.47;6121103;23;20101;-85
2023/01/06 05:08:49;;;;;;;6.40;1.40;;;12.60;86.30;;;11.35;69.47;100636.75;6121402;23;20093;-83
2023/01/06 05:11:19;;;;;;;5.70;1.50;;;12.60;86.40;;;11.34;69.26;100633.25;6119534;23;20346;-85
2023/01/06 05:13:47;;;;;;;5.38;1.23;;;12.60;86.00;;;11.26;70.03;100627.34;6121635;23;20106;-85
2023/01/06 05:16:18;;;;;;;7.53;1.38;;;12.60;86.70;;;11.31;69.92;100627.53;6120429;23;20022;-85
2023/01/06 05:18:45;;;;;;;7.53;1.30;;;12.60;86.30;;;11.36;69.79;100619.69;6121441;23;20102;-85
2023/01/06 05:21:13;;;;;;;5.88;1.40;;;12.60;86.40;;;11.38;69.80;100622.16;6121028;23;20033;-81
2023/01/06 05:23:40;;;;;;;4.63;1.08;;;12.60;86.40;;;11.37;69.40;100621.34;6121768;23;20044;-80
2023/01/06 05:26:09;;;;;;;5.43;1.10;;;12.50;86.30;;;11.40;69.82;100625.44;6121264;23;20021;-79
2023/01/06 05:28:36;;;;;;;7.55;1.40;;;12.60;86.70;;;11.38;69.20;100627.50;6121079;23;20028;-79
2023/01/06 05:31:05;;;;;;;5.78;1.40;;;12.60;86.10;;;11.33;69.43;100631.63;6121330;23;20040;-79
2023/01/06 05:33:33;;;;;;;5.07;1.23;;;12.60;86.30;;;11.34;69.31;100633.25;6121719;23;20028;-78
2023/01/06 05:36:01;;;;;;;3.55;1.08;;;12.50;86.20;;;11.37;69.31;100625.84;6120580;23;20467;-78
2023/01/06 05:38:28;;;;;;;3.95;1.13;;;12.60;86.20;;;11.34;69.07;100627.09;6119784;23;20378;-79
2023/01/06 05:40:56;;;;;;;6.97;1.52;;;12.50;85.90;;;11.35;69.29;100636.75;6121637;23;20452;-78
2023/01/06 05:43:24;;;;;;;4.93;1.30;;;12.60;86.30;;;11.26;69.30;100640.69;6120530;23;20077;-78
2023/01/06 05:45:51;;;;;;;7.07;1.67;;;12.60;86.10;;;11.29;69.04;100646.44;6120761;23;20026;-78
2023/01/06 05:48:23;;;;;;;2.85;1.00;;;12.50;85.90;;;11.30;69.18;100648.06;6120611;23;20040;-79
2023/01/06 05:50:50;;;;;;;5.22;1.20;;;12.50;86.10;;;11.30;68.94;100639.25;6121238;23;20024;-78
2023/01/06 05:53:18;;;;;;;6.57;1.33;;;12.50;86.10;;;11.31;69.09;100647.03;6121634;23;20475;-78
2023/01/06 05:55:45;;;;;;;3.40;1.15;;;12.50;86.10;;;11.32;68.88;100639.84;6121252;23;20018;-78
2023/01/06 05:58:12;;;;;;;5.00;1.10;;;12.50;85.90;;;11.33;68.74;100636.16;6120909;23;20029;-78
2023/01/06 06:00:39;;;;;;;5.32;1.20;;;12.50;86.00;;;11.32;69.23;100640.69;6120511;23;20026;-78
2023/01/06 06:03:06;;;;;;;7.18;1.13;;;12.50;86.30;;;11.34;68.97;100630.59;6121026;23;20026;-79
2023/01/06 06:05:35;;;;;;;5.38;1.10;;;12.50;86.10;;;11.31;69.05;100638.19;6121406;23;20097;-78
2023/01/06 06:08:02;;;;;;;4.47;0.93;;;12.50;86.00;;;11.32;68.84;100640.69;6120425;23;20026;-78
2023/01/06 06:10:29;;;;;;;7.10;1.20;;;12.50;85.70;;;11.35;69.15;100634.09;6121376;23;20072;-79
2023/01/06 06:12:56;;;;;;;4.28;1.20;;;12.50;86.20;;;11.32;69.09;100631.81;6120499;23;20032;-79
2023/01/06 06:15:24;;;;;;;5.00;1.25;;;12.50;85.90;;;11.34;68.87;100630.59;6143711;23;20041;-79
2023/01/06 06:17:51;;;;;;;5.53;1.33;;;12.50;85.90;;;11.31;68.59;100616.84;6119959;23;20104;-78
2023/01/06 06:20:18;;;;;;;4.03;1.00;;;12.40;85.50;;;11.23;68.54;100627.78;6120335;23;20021;-78
2023/01/06 06:22:46;;;;;;;4.88;1.20;;;12.50;85.30;;;11.21;68.67;100611.13;6121085;23;20448;-78
2023/01/06 06:25:13;;;;;;;3.75;1.27;;;12.50;85.70;;;11.26;69.15;100608.66;6121084;23;20026;-78
2023/01/06 06:27:40;;;;;;;4.15;1.38;;;12.50;85.90;;;11.26;69.64;100614.81;6120432;23;20349;-78
2023/01/06 06:30:09;;;;;;;4.10;1.30;;;12.50;86.30;;;11.28;68.87;100630.63;6120932;23;20373;-78
2023/01/06 06:32:36;;;;;;;5.30;1.20;;;12.50;85.70;;;11.32;69.10;100615.81;6121208;23;20030;-78
2023/01/06 06:35:04;;;;;;;6.00;1.30;;;12.50;85.90;;;11.34;68.61;100617.25;6143298;23;20328;-78
2023/01/06 06:37:31;;;;;;;4.15;1.23;;;12.50;85.50;;;11.33;68.48;100617.47;6118276;23;20018;-78
2023/01/06 06:39:59;;;;;;;5.25;1.23;;;12.50;85.40;;;11.34;68.74;100621.78;6118991;23;20445;-78
2023/01/06 06:42:26;;;;;;;5.05;1.35;;;12.50;85.70;;;11.32;68.46;100627.34;6120891;23;20077;-78
2023/01/06 06:44:53;;;;;;;4.60;1.13;;;12.60;85.50;;;11.32;69.16;100632.66;6120791;23;20021;-78
2023/01/06 06:47:20;;;;;;;5.03;1.23;;;12.50;86.00;;;11.30;69.40;100620.56;6120244;23;20356;-78
2023/01/06 06:49:47;;;;;;;3.53;1.27;;;12.50;86.10;;;11.27;69.46;100621.81;6142881;23;20389;-77
2023/01/06 06:52:16;;;;;;;6.32;1.35;;;12.50;86.30;;;11.29;69.64;100634.94;6121323;23;20076;-78
2023/01/06 06:54:43;;;;;;;5.07;1.10;;;12.50;86.30;;;11.30;69.46;100609.88;6120359;23;20026;-79
2023/01/06 06:57:11;;;;;;;5.28;1.10;;;12.70;86.30;;;11.32;69.42;100616.66;6119944;23;20348;-86
2023/01/06 06:59:38;;;;;;;3.33;1.23;;;12.50;86.30;;;11.33;69.64;100610.28;6120618;23;20022;-80
2023/01/06 07:02:06;;;;;;;4.88;1.13;;;12.50;86.30;;;11.30;69.20;100616.03;6120695;23;20351;-80
2023/01/06 07:04:33;;;;;;;3.25;1.10;;;12.50;86.10;;;11.30;69.16;100621.38;6120582;23;20097;-80
2023/01/06 07:07:00;;;;;;;5.10;1.08;;;12.50;85.90;;;11.28;68.87;100628.78;6120010;23;20025;-80
2023/01/06 07:09:27;;;;;;;4.57;1.05;;;12.50;85.80;;;11.27;68.76;100626.31;6120525;23;20615;-80
2023/01/06 07:11:54;;;;;;;3.88;1.10;;;12.50;85.70;;;11.28;69.05;100617.28;6120449;23;20022;-79
2023/01/06 07:14:23;;;;;;;4.95;1.02;;;12.50;85.90;;;11.27;69.55;100608.47;6120270;23;20120;-80
2023/01/06 07:16:50;;;;;;;3.08;0.70;;;12.50;86.40;;;11.30;68.98;100601.84;6119600;23;20022;-78
2023/01/06 07:19:17;;;;;;;3.15;1.05;;;12.50;85.90;;;11.29;68.99;100602.91;6120583;23;20022;-78
2023/01/06 07:21:44;;;;;;;3.08;1.00;;;12.50;86.10;;;11.32;69.26;100605.13;6120454;23;20026;-78
2023/01/06 07:24:11;;;;;;;5.50;1.00;;;12.70;86.20;;;11.30;68.31;100597.34;6120982;23;20018;-78
2023/01/06 07:26:38;;;;;;;1.27;0.68;;;12.50;85.30;;;11.26;68.36;100595.31;6119730;23;20414;-76
2023/01/06 07:29:06;;;;;;;3.10;0.90;;;12.40;85.30;;;11.27;68.70;100584.44;6139995;23;20112;-77
2023/01/06 07:31:34;;;;;;;4.05;1.27;;;12.40;85.80;;;11.27;68.40;100580.91;6119856;23;20026;-76
2023/01/06 07:34:01;;;;;;;3.65;1.20;;;12.40;85.40;;;11.27;68.35;100603.13;6119506;23;20022;-76
2023/01/06 07:36:28;;;;;;;4.13;1.10;;;12.50;85.50;;;11.24;68.37;100595.53;6119220;23;20109;-77
2023/01/06 07:38:55;;;;;;;6.55;2.50;;;12.40;85.50;;;11.22;68.54;100610.09;6120114;23;20021;-77
2023/01/06 07:41:22;;;;;;;4.10;1.90;;;12.40;85.40;;;11.22;68.89;100616.25;6120520;23;20021;-78
2023/01/06 07:43:51;;;;;;;3.97;1.08;;;12.40;85.70;;;11.25;68.93;100629.19;6119378;23;20125;-81
2023/01/06 07:46:18;;;;;;;4.32;1.17;;;12.40;85.90;;;11.25;68.65;100604.34;6119129;23;20044;-81
2023/01/06 07:48:47;;;;;;;6.18;2.92;;;12.40;85.50;;;11.27;69.13;100604.94;6119164;23;20025;-81
2023/01/06 07:51:14;;;;;;;3.47;1.20;;;12.40;85.90;;;11.31;68.39;100616.84;6119914;23;20064;-81
2023/01/06 07:53:41;;;;;;;4.53;1.20;;;12.40;85.50;;;11.30;68.73;100616.03;6119683;23;20105;-81
2023/01/06 07:56:08;;;;;;;4.05;1.10;;;12.50;85.70;;;11.33;68.98;100612.13;6119727;23;20045;-81
2023/01/06 07:58:35;;;;;;;3.90;1.20;;;12.50;85.90;;;11.32;68.72;100619.31;6119533;23;20018;-81
2023/01/06 08:01:06;;;;;;;2.47;1.00;;;12.50;85.90;;;11.34;68.70;100621.78;6119775;23;20041;-81
2023/01/06 08:03:33;;;;;;;3.40;1.10;;;12.50;85.80;;;11.37;68.76;100624.03;6120179;23;20036;-81
2023/01/06 08:06:07;;;;;;;3.40;1.05;;;12.50;85.90;;;11.32;68.44;100616.66;6120078;23;20021;-81
2023/01/06 08:08:37;;;;;;;3.78;1.15;;;12.50;85.50;;;11.31;68.56;100631.00;6121818;23;20041;-80
2023/01/06 08:11:05;;;;;;;5.03;1.15;;;12.50;85.50;;;11.30;68.87;100640.06;6121349;23;20037;-81
2023/01/06 08:13:32;;;;;;;2.90;0.90;;;12.50;85.90;;;11.30;68.96;100625.88;6122120;23;20512;-80
2023/01/06 08:16:00;;;;;;;2.90;0.98;;;12.50;85.90;;;11.32;69.19;100624.66;6145010;23;20029;-79
2023/01/06 08:18:28;;;;;;;3.92;1.20;;;12.50;86.20;;;11.33;69.24;100646.84;6120091;23;20026;-79
2023/01/06 08:21:02;;;;;;;9.00;1.10;;;12.50;86.30;;;11.31;69.71;100644.34;6121007;23;20022;-79
2023/01/06 08:23:29;;;;;;;3.42;1.00;;;12.50;86.50;;;11.34;69.80;100641.28;6122397;23;20077;-80
2023/01/06 08:26:02;;;;;;;6.18;1.38;;;12.50;86.60;;;11.33;69.80;100634.31;6121841;23;20142;-79
2023/01/06 08:28:30;;;;;;;4.55;1.10;;;12.50;86.70;;;11.35;69.65;100631.41;6121717;23;20021;-79
2023/01/06 08:30:58;;;;;;;3.40;1.02;;;12.50;86.60;;;11.31;69.77;100648.88;6121141;23;20024;-79
2023/01/06 08:33:26;;;;;;;3.42;1.08;;;12.50;86.50;;;11.26;70.33;100654.03;6122217;23;20125;-80
2023/01/06 08:35:58;;;;;;;3.63;1.02;;;12.50;86.90;;;11.26;70.60;100662.03;6121896;23;20026;-79
2023/01/06 08:38:27;;;;;;;3.42;1.48;;;12.40;87.10;;;11.25;70.58;100658.56;6121805;23;20548;-79
2023/01/06 08:40:56;;;;;;;5.55;1.33;;;12.50;87.20;;;11.32;70.47;100664.72;6121987;23;20033;-79
2023/01/06 08:43:24;;;;;;;3.25;1.15;;;12.50;87.30;;;11.32;70.77;100664.72;6121660;23;20113;-85
2023/01/06 08:45:51;;;;;;;3.97;1.20;;;12.50;87.40;;;11.31;71.10;100670.25;6121276;23;20026;-85
2023/01/06 08:48:20;;;;;;;5.28;1.10;;;12.50;87.50;;;11.31;71.15;100670.25;6120639;23;20026;-84
2023/01/06 08:50:47;;;;;;;4.20;1.10;;;12.40;87.60;;;11.32;71.40;100651.38;6121718;23;20463;-84
2023/01/06 08:53:14;;;;;;;3.20;1.02;;;12.50;87.90;;;11.28;71.62;100663.50;6121583;23;20025;-84
2023/01/06 08:55:43;;;;;;;5.35;1.20;;;12.50;88.00;;;11.24;72.39;100659.59;6121943;23;20045;-84
2023/01/06 08:58:11;;;;;;;2.47;1.00;;;12.50;88.20;;;11.22;72.95;100669.66;6121623;23;20097;-85
2023/01/06 09:00:40;;;;;;;5.10;1.10;;;12.50;88.90;;;11.26;73.17;100672.72;6121787;23;20045;-85
2023/01/06 09:03:08;;;;;;;2.67;0.90;;;12.50;88.90;;;11.30;73.30;100674.75;6121393;23;20321;-84
2023/01/06 09:05:35;;;;;;;5.45;1.42;;;12.40;89.10;;;11.32;73.35;100664.72;6120967;23;20037;-83
2023/01/06 09:08:02;;;;;;;3.80;1.00;;;12.50;89.30;;;11.32;73.55;100675.41;6119750;23;20032;-84
2023/01/06 09:10:29;;;;;;;2.85;1.10;;;12.50;89.50;;;11.32;73.84;100680.72;6119512;23;20022;-84
2023/01/06 09:12:58;;;;;;;3.35;0.93;;;12.50;89.30;;;11.26;73.61;100675.41;6121021;23;20029;-84
2023/01/06 09:15:25;;;;;;;1.80;1.00;;;12.50;89.30;;;11.26;74.60;100689.56;6120596;23;20025;-84
2023/01/06 09:17:52;;;;;;;2.97;1.15;;;12.50;89.80;;;11.32;74.63;100683.41;6121398;23;20102;-84
2023/01/06 09:20:19;;;;;;;4.50;1.23;;;12.50;90.00;;;11.34;74.86;100701.88;6120754;23;20018;-84
2023/01/06 09:22:47;;;;;;;3.88;1.23;;;12.50;90.30;;;11.33;75.12;100709.06;6120910;23;20050;-84
2023/01/06 09:25:14;;;;;;;3.45;0.98;;;12.50;90.40;;;11.37;75.09;100705.97;6121318;23;20022;-84
2023/01/06 09:27:41;;;;;;;3.13;1.10;;;12.50;90.60;;;11.39;75.22;100710.06;6120941;23;20452;-87
2023/01/06 09:30:12;;;;;;;3.97;1.30;;;12.50;90.70;;;11.38;75.66;100712.97;6143419;23;20022;-82
2023/01/06 09:32:39;;;;;;;2.83;1.20;;;12.50;90.90;;;11.36;75.95;100702.47;6118904;23;20053;-82
2023/01/06 09:35:08;;;;;;;3.33;0.98;;;12.50;91.10;;;11.27;76.76;100715.25;6121792;23;20032;-82
2023/01/06 09:37:35;;;;;;;5.28;1.45;;;12.50;91.50;;;11.31;76.98;100716.44;6120865;23;20429;-82
2023/01/06 09:40:02;;;;;;;4.30;1.27;;;12.50;91.70;;;11.29;77.38;100721.19;6120906;23;20025;-82
2023/01/06 09:42:48;;;;;;;3.53;1.25;;;12.50;92.00;;;11.29;77.43;100721.19;6132980;23;20451;-76
2023/01/06 09:45:20;;;;;;;3.53;1.05;;;12.50;92.20;;;11.37;77.34;100727.31;6149895;23;20021;-76
2023/01/06 09:47:51;;;;;;;2.75;1.20;;;12.50;92.00;;;11.39;77.76;100727.94;6149676;23;20032;-76
2023/01/06 09:50:31;;;;;;;2.78;1.20;;;12.60;92.40;;;11.41;77.88;100739.22;6149682;23;20021;-76
2023/01/06 09:53:03;;;;;;;3.67;1.30;;;12.60;92.60;;;11.42;77.96;100732.84;6149522;23;20462;-76
2023/01/06 09:55:36;;;;;;;3.97;1.80;;;12.60;92.60;;;11.41;78.42;100733.88;6151248;23;20025;-76
2023/01/06 09:58:11;;;;;;;3.67;1.50;;;12.60;93.00;;;11.42;78.42;100735.53;6150446;23;20093;-76
2023/01/06 10:00:43;;;;;;;6.32;1.30;;;12.60;93.00;;;11.37;78.54;100735.34;6150040;23;20017;-76
2023/01/06 10:03:14;;;;;;;2.60;1.48;;;12.60;93.00;;;11.34;78.87;100737.41;6150039;23;20028;-75
2023/01/06 10:06:01;;;;;;;6.05;1.50;;;12.60;93.20;;;11.30;79.14;100736.19;6148261;23;20455;-75
2023/01/06 10:08:41;;;;;;;3.10;1.00;;;12.50;93.30;;;11.33;79.53;100737.63;6149115;23;20396;-76
2023/01/06 10:11:14;;;;;;;3.92;1.20;;;12.50;93.40;;;11.37;79.13;100733.50;6147979;23;20028;-75
2023/01/06 10:14:05;;;;;;;3.95;1.70;;;12.50;93.40;;;11.37;79.27;100738.00;6150365;23;20519;-76
2023/01/06 10:16:51;;;;;;;2.72;1.38;;;12.60;93.40;;;11.36;79.65;100734.50;6147751;23;20063;-76
2023/01/06 10:19:29;;;;;;;2.60;1.20;;;12.60;93.80;;;11.35;80.13;100739.03;6150578;23;20691;-76
2023/01/06 10:22:08;;;;;;;2.58;1.35;;;12.50;94.00;;;11.38;80.10;100742.34;6150649;23;20021;-76
2023/01/06 10:24:53;;;;;;;5.03;1.73;;;12.60;94.00;;;11.40;79.80;100751.75;6149230;23;20296;-75
2023/01/06 10:27:32;;;;;;;4.78;1.73;;;12.50;93.80;;;11.43;79.66;100745.19;6149605;23;20021;-76
2023/01/06 10:30:02;;;;;;;5.82;1.70;;;12.60;94.00;;;11.44;79.54;100744.97;6149839;23;20021;-76
2023/01/06 10:32:35;;;;;;;4.28;1.50;;;12.60;93.80;;;11.47;79.58;100733.06;6150296;23;20048;-76